Time;durP1;ratioP1;P1;durP2;ratioP2;P2;SDS_P1;SDS_P2;PMS_P1;PMS_P2;Temp;Humidity;BMP_temperature;BMP_pressure;BME280_temperature;BME280_humidity;BME280_pressure;Samples;Min_cycle;Max_cycle;Signal;HPM_P1;HPM_P2
2023/05/14 00:02:23;;;;;;;0.60;0.55;;;;;;;16.07;57.92;102128.56;5056603;28;20102;-81
2023/05/14 00:04:49;;;;;;;0.10;0.10;;;;;;;16.05;57.71;102135.78;5055458;28;20032;-81
2023/05/14 00:07:15;;;;;;;0.10;0.10;;;;;;;16.03;58.06;102132.25;5048997;28;20032;-81
2023/05/14 00:09:41;;;;;;;0.03;0.03;;;;;;;16.02;57.59;102127.81;5054753;28;20633;-82
2023/05/14 00:12:08;;;;;;;1.98;1.27;;;;;;;15.99;57.72;102125.22;5057385;28;20080;-82
2023/05/14 00:14:35;;;;;;;0.20;0.20;;;;;;;15.97;57.70;102116.34;5073513;28;20071;-80
2023/05/14 00:17:01;;;;;;;0.10;0.10;;;;;;;15.94;57.60;102116.41;5066099;28;20092;-80
2023/05/14 00:19:27;;;;;;;0.10;0.10;;;;;;;15.91;58.10;102112.00;5057914;28;20100;-81
2023/05/14 00:21:53;;;;;;;1.75;0.50;;;;;;;15.90;58.16;102115.59;5054188;28;20025;-81
2023/05/14 00:24:20;;;;;;;0.20;0.20;;;;;;;15.88;58.70;102111.22;5058116;28;20065;-81
2023/05/14 00:26:46;;;;;;;0.00;0.00;;;;;;;15.85;57.89;102107.69;5054013;28;20074;-80
2023/05/14 00:29:12;;;;;;;0.15;0.15;;;;;;;15.84;58.06;102105.06;5054759;28;20025;-81
2023/05/14 00:31:38;;;;;;;0.10;0.10;;;;;;;15.82;58.04;102107.72;5054215;28;20112;-80
2023/05/14 00:34:04;;;;;;;0.17;0.17;;;;;;;15.81;58.10;102110.41;5054476;28;20025;-81
2023/05/14 00:36:30;;;;;;;0.10;0.10;;;;;;;15.79;58.03;102105.09;5054217;28;20445;-80
2023/05/14 00:38:56;;;;;;;0.20;0.20;;;;;;;15.77;58.09;102098.91;5054303;28;20067;-80
2023/05/14 00:41:23;;;;;;;1.00;0.80;;;;;;;15.75;58.83;102094.50;5054115;28;20056;-81
2023/05/14 00:43:49;;;;;;;0.52;0.52;;;;;;;15.75;58.36;102094.50;5048089;28;20025;-81
2023/05/14 00:46:16;;;;;;;0.63;0.63;;;;;;;15.72;58.48;102098.13;5051233;28;20499;-82
2023/05/14 00:48:43;;;;;;;0.10;0.10;;;;;;;15.72;58.17;102089.25;5053216;28;20029;-80
2023/05/14 00:51:09;;;;;;;4.95;0.63;;;;;;;15.71;58.44;102087.47;5054578;28;20025;-81
2023/05/14 00:53:36;;;;;;;0.20;0.20;;;;;;;15.69;58.79;102085.72;5057327;28;20013;-81
2023/05/14 00:56:02;;;;;;;0.20;0.20;;;;;;;15.69;59.41;102084.84;5072430;28;20032;-82
2023/05/14 00:58:29;;;;;;;0.10;0.10;;;;;;;15.69;58.59;102085.72;5067708;28;20040;-80
2023/05/14 01:00:55;;;;;;;0.10;0.10;;;;;;;15.68;58.77;102089.28;5056711;28;20029;-82
2023/05/14 01:03:21;;;;;;;0.13;0.13;;;;;;;15.66;58.44;102084.91;5056521;28;20033;-80
2023/05/14 01:14:41;;;;;;;1.02;0.43;;;;;;;15.59;59.00;102093.94;5075014;28;20391;-81
2023/05/14 01:17:10;;;;;;;2.80;0.70;;;;;;;15.48;59.92;102091.53;5053435;28;20029;-82
2023/05/14 01:19:40;;;;;;;0.10;0.10;;;;;;;15.56;59.00;102094.03;5052398;28;20033;-82
2023/05/14 01:22:07;;;;;;;0.35;0.35;;;;;;;15.53;59.35;102087.84;5057523;28;20025;-82
2023/05/14 01:24:33;;;;;;;0.05;0.05;;;;;;;15.53;58.99;102087.84;5051546;28;20405;-82
2023/05/14 01:29:57;;;;;;;0.52;0.52;;;;;;;15.55;59.09;102093.13;5079067;28;20379;-82
2023/05/14 01:32:26;;;;;;;0.10;0.10;;;;;;;15.49;61.13;102090.63;5053168;28;20536;-82
2023/05/14 01:34:54;;;;;;;0.10;0.10;;;;;;;15.50;59.53;102090.59;5044283;28;20508;-83
2023/05/14 01:37:21;;;;;;;0.47;0.47;;;;;;;15.51;59.20;102092.34;5047025;28;20030;-82
2023/05/14 01:39:49;;;;;;;0.35;0.35;;;;;;;15.50;59.06;102090.59;5070672;28;20028;-82
2023/05/14 01:42:15;;;;;;;0.10;0.10;;;;;;;15.48;59.09;102081.72;5046657;28;20032;-82
2023/05/14 01:44:42;;;;;;;0.38;0.38;;;;;;;15.44;59.48;102082.69;5063383;28;20036;-82
2023/05/14 01:47:08;;;;;;;0.10;0.10;;;;;;;15.46;59.35;102083.53;5072547;28;20047;-81
2023/05/14 01:49:36;;;;;;;0.10;0.10;;;;;;;15.46;59.73;102083.53;5054384;28;20026;-81
2023/05/14 01:52:02;;;;;;;0.20;0.20;;;;;;;15.45;59.74;102073.78;5063849;28;20035;-83
2023/05/14 01:54:28;;;;;;;0.08;0.08;;;;;;;15.44;59.75;102079.13;5051216;28;20052;-81
2023/05/14 01:56:54;;;;;;;0.10;0.10;;;;;;;15.42;59.41;102071.16;5071431;28;20053;-82
2023/05/14 01:59:20;;;;;;;0.10;0.10;;;;;;;15.41;59.60;102074.72;5045942;28;20030;-81
2023/05/14 02:01:46;;;;;;;0.03;0.03;;;;;;;15.38;59.68;102064.13;5055032;28;20095;-81
2023/05/14 02:04:12;;;;;;;0.10;0.10;;;;;;;15.37;59.79;102070.38;5056686;28;20025;-82
2023/05/14 02:06:38;;;;;;;0.10;0.10;;;;;;;15.34;59.81;102060.63;5065585;28;20021;-80
2023/05/14 02:09:05;;;;;;;0.10;0.10;;;;;;;15.35;59.64;102067.75;5056039;28;20045;-81
2023/05/14 02:11:31;;;;;;;0.10;0.10;;;;;;;15.35;59.70;102061.50;5063927;28;20056;-82
2023/05/14 02:13:57;;;;;;;0.00;0.00;;;;;;;15.35;59.94;102053.50;5069686;28;20423;-82
2023/05/14 02:16:23;;;;;;;0.00;0.00;;;;;;;15.35;59.96;102058.84;5059263;28;20036;-82
2023/05/14 02:18:49;;;;;;;0.10;0.10;;;;;;;15.34;59.46;102052.63;5050422;28;20017;-82
2023/05/14 02:21:15;;;;;;;0.13;0.13;;;;;;;15.34;59.35;102054.44;5072150;28;20048;-82
2023/05/14 02:23:41;;;;;;;0.10;0.10;;;;;;;15.32;59.81;102056.25;5053551;28;20033;-82
2023/05/14 02:26:09;;;;;;;0.05;0.05;;;;;;;15.33;59.91;102055.34;5066998;28;20028;-82
2023/05/14 02:28:35;;;;;;;0.15;0.15;;;;;;;15.31;60.05;102049.13;5063903;28;20058;-82
2023/05/14 02:31:01;;;;;;;0.10;0.10;;;;;;;15.33;60.02;102061.53;5060283;28;20111;-82
2023/05/14 02:33:27;;;;;;;0.05;0.05;;;;;;;15.34;59.92;102060.63;5064382;28;20032;-82
2023/05/14 02:35:54;;;;;;;0.10;0.10;;;;;;;15.33;60.13;102066.00;5056996;28;20364;-82
2023/05/14 02:38:20;;;;;;;0.17;0.17;;;;;;;15.32;59.80;102056.25;5047705;28;20071;-81
2023/05/14 02:40:46;;;;;;;0.00;0.00;;;;;;;15.31;60.37;102054.47;5045471;28;20037;-80
2023/05/14 02:43:12;;;;;;;0.10;0.10;;;;;;;15.28;59.79;102052.75;5035717;28;20037;-80
2023/05/14 02:45:38;;;;;;;1.30;1.20;;;;;;;15.28;59.86;102051.88;5050880;28;20606;-80
2023/05/14 02:48:04;;;;;;;0.40;0.40;;;;;;;15.27;60.44;102052.78;5049966;28;20128;-82
2023/05/14 02:50:30;;;;;;;0.20;0.20;;;;;;;15.25;59.93;102047.44;5045045;28;20060;-82
2023/05/14 02:52:56;;;;;;;0.10;0.10;;;;;;;15.23;61.07;102048.41;5048183;28;20025;-83
2023/05/14 02:55:25;;;;;;;0.20;0.20;;;;;;;15.20;60.38;102049.34;5037937;28;20033;-82
2023/05/14 02:57:52;;;;;;;0.10;0.10;;;;;;;15.18;59.81;102052.06;5051846;28;20685;-82
2023/05/14 03:00:18;;;;;;;0.10;0.10;;;;;;;15.16;60.39;102043.19;5040614;28;20026;-82
2023/05/14 03:02:44;;;;;;;0.10;0.10;;;;;;;15.13;60.45;102043.25;5049314;28;20029;-82
2023/05/14 03:05:10;;;;;;;0.10;0.10;;;;;;;15.12;60.39;102049.50;5045162;28;20046;-82
2023/05/14 03:07:36;;;;;;;0.10;0.10;;;;;;;15.11;60.35;102038.88;5034726;28;20032;-82
2023/05/14 03:10:03;;;;;;;0.10;0.10;;;;;;;15.09;60.41;102041.56;5048454;28;20057;-82
2023/05/14 03:12:29;;;;;;;4.72;1.13;;;;;;;15.08;60.43;102037.13;5040377;28;20025;-82
2023/05/14 03:14:55;;;;;;;0.10;0.10;;;;;;;15.06;60.39;102038.94;5051697;28;20080;-82
2023/05/14 03:17:21;;;;;;;0.00;0.00;;;;;;;15.06;60.44;102036.28;5039110;28;20459;-82
2023/05/14 03:19:47;;;;;;;0.20;0.20;;;;;;;15.05;60.60;102039.84;5051531;28;20025;-81
2023/05/14 03:22:14;;;;;;;2.08;1.30;;;;;;;15.04;60.52;102038.09;5055643;28;20036;-81
2023/05/14 03:24:40;;;;;;;0.00;0.00;;;;;;;15.04;60.79;102027.41;5062817;28;20025;-82
2023/05/14 03:27:06;;;;;;;0.10;0.10;;;;;;;15.04;60.80;102038.09;5059191;28;20025;-82
2023/05/14 03:29:32;;;;;;;0.10;0.10;;;;;;;15.04;60.90;102038.97;5053319;28;20033;-82
2023/05/14 03:31:58;;;;;;;0.10;0.10;;;;;;;15.02;61.03;102026.59;5062455;28;20057;-82
2023/05/14 03:34:25;;;;;;;0.10;0.10;;;;;;;15.03;60.95;102036.34;5053165;28;20085;-81
2023/05/14 03:36:51;;;;;;;0.30;0.30;;;;;;;15.03;61.12;102042.56;5061807;28;20119;-83
2023/05/14 03:39:18;;;;;;;0.00;0.00;;;;;;;15.01;60.97;102040.81;5054817;28;20017;-82
2023/05/14 03:41:46;;;;;;;0.20;0.20;;;;;;;15.01;60.56;102038.16;5061850;28;20029;-82
2023/05/14 03:44:12;;;;;;;0.10;0.10;;;;;;;14.98;61.03;102028.44;5058175;28;20029;-82
2023/05/14 03:46:39;;;;;;;0.20;0.20;;;;;;;14.97;61.21;102031.13;5054829;28;20036;-82
2023/05/14 03:49:06;;;;;;;0.10;0.10;;;;;;;14.94;61.88;102031.16;5059794;28;20076;-82
2023/05/14 03:51:32;;;;;;;0.10;0.10;;;;;;;14.92;61.25;102030.34;5060281;28;20080;-79
2023/05/14 03:53:58;;;;;;;0.10;0.10;;;;;;;14.92;61.41;102027.69;5076028;28;20024;-80
2023/05/14 03:56:24;;;;;;;0.10;0.10;;;;;;;14.88;61.54;102011.72;5057921;28;20069;-82
2023/05/14 03:58:51;;;;;;;0.10;0.10;;;;;;;14.86;61.22;102024.19;5057073;28;20104;-82
2023/05/14 04:01:17;;;;;;;1.17;1.17;;;;;;;14.85;61.40;102024.22;5057971;28;20093;-82
2023/05/14 04:03:43;;;;;;;0.10;0.10;;;;;;;14.83;61.39;102013.59;5054751;28;20033;-82
2023/05/14 04:06:09;;;;;;;0.10;0.10;;;;;;;14.84;61.17;102015.34;5059443;28;20167;-82
2023/05/14 04:08:35;;;;;;;9.18;0.95;;;;;;;14.84;61.83;102019.78;5054411;28;20026;-82
2023/05/14 04:11:01;;;;;;;0.00;0.00;;;;;;;14.85;61.86;102018.88;5062370;28;20033;-80
2023/05/14 04:13:28;;;;;;;0.00;0.00;;;;;;;14.86;61.62;102008.19;5054277;28;20029;-82
2023/05/14 04:15:54;;;;;;;0.10;0.10;;;;;;;14.86;61.71;102001.97;5055564;28;20024;-82
2023/05/14 04:18:20;;;;;;;1.35;0.63;;;;;;;14.86;61.90;102018.84;5055729;28;20049;-83
2023/05/14 04:20:46;;;;;;;0.63;0.63;;;;;;;14.88;61.44;102027.72;5057819;28;20096;-82
2023/05/14 04:23:12;;;;;;;0.10;0.10;;;;;;;14.89;62.17;102025.91;5057341;28;20025;-82
2023/05/14 04:25:38;;;;;;;0.10;0.10;;;;;;;14.90;61.76;102024.16;5059536;28;20045;-82
2023/05/14 04:28:04;;;;;;;0.10;0.10;;;;;;;14.90;61.53;102024.16;5052893;28;20032;-82
2023/05/14 04:30:30;;;;;;;0.03;0.03;;;;;;;14.90;61.91;102032.16;5045812;28;20045;-82
2023/05/14 04:32:57;;;;;;;0.08;0.08;;;;;;;14.89;62.64;102028.59;5056032;28;20029;-82
2023/05/14 04:35:23;;;;;;;0.17;0.17;;;;;;;14.88;62.69;102035.72;5054526;28;20025;-81
2023/05/14 04:37:49;;;;;;;0.10;0.10;;;;;;;14.88;62.01;102037.53;5053729;28;20032;-82
2023/05/14 04:40:16;;;;;;;0.10;0.10;;;;;;;14.90;61.46;102040.16;5056019;28;20050;-82
2023/05/14 04:42:42;;;;;;;0.10;0.10;;;;;;;14.90;61.85;102034.81;5058722;28;20451;-82
2023/05/14 04:45:09;;;;;;;0.30;0.30;;;;;;;14.88;62.54;102033.06;5057194;28;20107;-82
2023/05/14 04:47:35;;;;;;;0.10;0.10;;;;;;;14.91;62.15;102026.78;5050751;28;20067;-80
2023/05/14 04:50:01;;;;;;;0.10;0.10;;;;;;;14.94;62.51;102025.84;5057143;28;20029;-80
2023/05/14 04:52:27;;;;;;;0.93;0.47;;;;;;;14.96;61.91;102032.03;5054299;28;20029;-82
2023/05/14 04:54:54;;;;;;;1.38;0.50;;;;;;;14.99;61.98;102018.63;5059861;28;20159;-82
2023/05/14 04:57:20;;;;;;;0.00;0.00;;;;;;;15.01;61.62;102027.47;5057257;28;20381;-83
2023/05/14 04:59:46;;;;;;;0.10;0.10;;;;;;;15.03;61.94;102021.19;5058930;28;20063;-82
2023/05/14 05:02:12;;;;;;;0.88;0.40;;;;;;;15.06;62.66;102030.94;5053985;28;20454;-82
2023/05/14 05:04:38;;;;;;;0.22;0.22;;;;;;;15.09;62.30;102027.31;5050083;28;20100;-81
2023/05/14 05:07:05;;;;;;;0.10;0.10;;;;;;;15.12;62.07;102025.47;5055772;28;20025;-82
2023/05/14 05:09:31;;;;;;;0.10;0.10;;;;;;;15.15;62.62;102029.88;5053519;28;20028;-82
2023/05/14 05:11:57;;;;;;;0.10;0.10;;;;;;;15.17;62.02;102034.28;5058325;28;20045;-81
2023/05/14 05:14:23;;;;;;;1.17;1.15;;;;;;;15.20;62.67;102033.31;5054753;28;20523;-82
2023/05/14 05:16:50;;;;;;;0.10;0.10;;;;;;;15.22;62.25;102033.31;5050150;28;20024;-82
2023/05/14 05:19:16;;;;;;;0.10;0.10;;;;;;;15.24;62.42;102031.47;5055522;28;20084;-82
2023/05/14 05:21:42;;;;;;;0.05;0.05;;;;;;;15.25;61.89;102030.56;5056447;28;20032;-81
2023/05/14 05:24:09;;;;;;;0.08;0.08;;;;;;;15.26;62.05;102029.66;5056614;28;20033;-82
2023/05/14 05:26:35;;;;;;;0.10;0.10;;;;;;;15.26;62.33;102033.19;5051165;28;20081;-82
2023/05/14 05:29:03;;;;;;;0.05;0.05;;;;;;;15.28;62.43;102035.84;5051458;28;20021;-83
2023/05/14 05:31:29;;;;;;;0.10;0.10;;;;;;;15.27;62.52;102032.28;5047451;28;20029;-82
2023/05/14 05:33:56;;;;;;;0.00;0.00;;;;;;;15.28;62.57;102030.53;5054163;28;20025;-82
2023/05/14 05:36:22;;;;;;;0.10;0.10;;;;;;;15.29;62.33;102026.91;5049051;28;20089;-81
2023/05/14 05:38:48;;;;;;;0.10;0.10;;;;;;;15.33;62.04;102033.97;5057045;28;21111;-82
2023/05/14 05:41:14;;;;;;;0.10;0.10;;;;;;;15.32;62.08;102032.22;5055271;28;20017;-82
2023/05/14 05:43:40;;;;;;;0.10;0.10;;;;;;;15.30;62.36;102042.94;5059722;28;20163;-82
2023/05/14 05:46:07;;;;;;;0.20;0.20;;;;;;;15.31;62.54;102039.31;5051204;28;20033;-82
2023/05/14 05:48:33;;;;;;;0.22;0.22;;;;;;;15.31;62.34;102042.00;5056972;28;20033;-81
2023/05/14 05:50:59;;;;;;;0.30;0.30;;;;;;;15.32;63.22;102042.88;5054179;28;20037;-82
2023/05/14 05:53:25;;;;;;;0.10;0.10;;;;;;;15.34;62.60;102046.41;5056794;28;20077;-82
2023/05/14 05:55:51;;;;;;;0.10;0.10;;;;;;;15.37;62.57;102047.19;5056196;28;20068;-82
2023/05/14 05:58:18;;;;;;;0.10;0.10;;;;;;;15.41;62.61;102039.16;5055489;28;20052;-82
2023/05/14 06:00:45;;;;;;;0.65;0.65;;;;;;;15.46;62.84;102053.28;5050440;28;20052;-81
2023/05/14 06:03:12;;;;;;;0.20;0.20;;;;;;;15.50;62.54;102050.50;5051009;28;20021;-82
2023/05/14 06:05:38;;;;;;;0.30;0.30;;;;;;;15.55;62.93;102057.53;5051067;28;20056;-82
2023/05/14 06:08:05;;;;;;;0.20;0.20;;;;;;;15.59;63.68;102045.88;5052108;28;20056;-81
2023/05/14 06:10:31;;;;;;;0.88;0.88;;;;;;;15.69;63.00;102063.47;5057149;28;20039;-82
2023/05/14 06:12:57;;;;;;;1.48;1.27;;;;;;;15.70;63.08;102054.53;5044620;28;20397;-81
2023/05/14 06:15:23;;;;;;;0.75;0.75;;;;;;;15.76;63.40;102053.53;5053802;28;20033;-82
2023/05/14 06:17:49;;;;;;;0.20;0.20;;;;;;;15.85;63.29;102059.56;5049967;28;20036;-82
2023/05/14 06:20:15;;;;;;;0.82;0.82;;;;;;;15.96;63.30;102050.41;5050410;28;20101;-82
2023/05/14 06:22:41;;;;;;;0.10;0.10;;;;;;;16.07;63.19;102053.72;5047096;28;20026;-82
2023/05/14 06:25:08;;;;;;;0.20;0.20;;;;;;;16.20;63.17;102064.13;5052003;28;20037;-82
2023/05/14 06:27:34;;;;;;;0.13;0.13;;;;;;;16.28;62.59;102054.13;5043602;28;20485;-82
2023/05/14 06:30:00;;;;;;;0.10;0.10;;;;;;;16.35;62.48;102058.41;5031728;28;20512;-82
2023/05/14 06:32:26;;;;;;;0.28;0.28;;;;;;;16.42;62.51;102053.78;5043405;28;20064;-81
2023/05/14 06:34:52;;;;;;;0.20;0.20;;;;;;;16.44;62.80;102060.84;5038918;28;20105;-80
2023/05/14 06:37:19;;;;;;;0.45;0.45;;;;;;;16.46;62.54;102064.38;5047397;28;20036;-81
2023/05/14 06:39:48;;;;;;;0.30;0.30;;;;;;;16.48;62.86;102059.84;5033865;28;20025;-80
2023/05/14 06:42:15;;;;;;;0.40;0.40;;;;;;;16.54;63.02;102068.66;5048631;28;20032;-81
2023/05/14 06:44:42;;;;;;;0.10;0.10;;;;;;;16.62;62.71;102058.63;5050855;28;20089;-81
2023/05/14 06:47:08;;;;;;;0.60;0.40;;;;;;;16.71;62.57;102060.16;5037514;28;20021;-81
2023/05/14 06:49:34;;;;;;;0.10;0.10;;;;;;;16.77;62.47;102063.59;5044440;28;20018;-80
2023/05/14 06:52:02;;;;;;;0.10;0.10;;;;;;;16.86;62.22;102058.88;5050885;28;20025;-82
2023/05/14 06:54:28;;;;;;;0.63;0.63;;;;;;;16.92;62.38;102054.28;5052687;28;20104;-81
2023/05/14 06:56:54;;;;;;;0.57;0.32;;;;;;;17.02;62.24;102054.91;5038424;28;20036;-81
2023/05/14 06:59:20;;;;;;;0.35;0.30;;;;;;;17.11;62.23;102046.63;5050583;28;20036;-81
2023/05/14 07:01:46;;;;;;;0.10;0.10;;;;;;;17.17;61.99;102045.59;5043403;28;20464;-82
2023/05/14 07:04:13;;;;;;;0.30;0.30;;;;;;;17.22;61.90;102045.44;5050475;28;20035;-82
2023/05/14 07:06:39;;;;;;;0.57;0.57;;;;;;;17.25;61.86;102042.69;5034711;28;20042;-82
2023/05/14 07:09:05;;;;;;;2.45;1.10;;;;;;;17.28;61.86;102043.47;5042517;28;20018;-82
2023/05/14 07:11:32;;;;;;;0.10;0.10;;;;;;;17.38;61.63;102048.53;5046847;28;20064;-82
2023/05/14 07:13:58;;;;;;;0.10;0.10;;;;;;;17.46;61.48;102050.06;5057211;28;20092;-81
2023/05/14 07:16:25;;;;;;;1.85;1.08;;;;;;;17.57;61.30;102051.53;5060599;28;20017;-82
2023/05/14 07:18:51;;;;;;;0.40;0.40;;;;;;;17.65;61.24;102048.66;5053583;28;20056;-82
2023/05/14 07:21:17;;;;;;;0.75;0.75;;;;;;;17.71;61.24;102054.69;5056318;28;20400;-82
2023/05/14 07:23:43;;;;;;;0.68;0.68;;;;;;;17.75;60.95;102045.63;5030826;28;20520;-83
2023/05/14 07:26:09;;;;;;;1.25;1.25;;;;;;;17.79;61.08;102039.25;5047946;28;20150;-82
2023/05/14 07:28:35;;;;;;;12.05;1.33;;;;;;;17.79;60.85;102039.25;5048422;28;20037;-82
2023/05/14 07:31:07;;;;;;;0.20;0.20;;;;;;;17.81;60.70;102038.31;5046719;28;20100;-81
2023/05/14 07:33:34;;;;;;;1.13;0.75;;;;;;;17.81;60.55;102036.53;5038849;28;20029;-82
2023/05/14 07:36:00;;;;;;;0.30;0.30;;;;;;;17.88;60.79;102037.19;5043329;28;20036;-81
2023/05/14 07:38:27;;;;;;;0.10;0.10;;;;;;;17.89;60.60;102038.97;5047300;28;20025;-81
2023/05/14 07:40:53;;;;;;;0.40;0.40;;;;;;;17.89;60.41;102037.16;5040744;28;20443;-82
2023/05/14 07:43:19;;;;;;;1.25;1.10;;;;;;;17.92;60.52;102033.53;5051593;28;20017;-82
2023/05/14 07:45:45;;;;;;;0.38;0.38;;;;;;;17.91;60.29;102040.66;5049974;28;20021;-82
2023/05/14 07:48:11;;;;;;;0.60;0.60;;;;;;;17.88;60.36;102034.53;5054356;28;20028;-81
2023/05/14 07:50:37;;;;;;;1.23;0.77;;;;;;;17.88;60.49;102037.19;5054557;28;20029;-80
2023/05/14 07:53:03;;;;;;;0.35;0.35;;;;;;;17.90;60.43;102035.34;5045384;28;20017;-82
2023/05/14 07:55:30;;;;;;;0.10;0.10;;;;;;;17.94;60.55;102039.72;5051623;28;20024;-82
2023/05/14 07:57:56;;;;;;;0.20;0.20;;;;;;;17.96;60.48;102043.25;5032563;28;20040;-82
2023/05/14 08:00:22;;;;;;;0.17;0.17;;;;;;;17.98;60.29;102044.09;5043475;28;20059;-81
2023/05/14 08:02:51;;;;;;;0.45;0.45;;;;;;;18.03;60.30;102034.06;5046577;28;20036;-82
2023/05/14 08:05:17;;;;;;;0.35;0.35;;;;;;;18.14;60.08;102036.38;5040550;28;20030;-82
2023/05/14 08:07:44;;;;;;;0.10;0.10;;;;;;;18.21;59.85;102037.09;5053949;28;20033;-82
2023/05/14 08:10:10;;;;;;;0.10;0.10;;;;;;;18.29;59.98;102037.69;5055311;28;20095;-82
2023/05/14 08:12:36;;;;;;;3.20;1.55;;;;;;;18.36;59.87;102033.88;5060618;28;20093;-82
2023/05/14 08:15:02;;;;;;;0.50;0.50;;;;;;;18.45;59.88;102030.00;5045894;28;20265;-82
2023/05/14 08:17:28;;;;;;;0.17;0.17;;;;;;;18.51;59.63;102021.75;5033197;28;20030;-83
2023/05/14 08:19:54;;;;;;;0.10;0.10;;;;;;;18.55;59.47;102025.19;5052402;28;20021;-85
2023/05/14 08:22:21;;;;;;;0.22;0.22;;;;;;;18.53;59.39;102030.63;5052736;28;20036;-81
2023/05/14 08:24:47;;;;;;;0.20;0.20;;;;;;;18.57;59.55;102026.03;5056855;28;20039;-82
2023/05/14 08:27:13;;;;;;;1.65;1.55;;;;;;;18.60;59.25;102031.28;5050667;28;20075;-82
2023/05/14 08:29:39;;;;;;;0.85;0.85;;;;;;;18.60;59.19;102033.97;5039632;28;20436;-82
2023/05/14 08:32:05;;;;;;;0.10;0.10;;;;;;;18.61;59.21;102024.97;5052657;28;20104;-83
2023/05/14 08:34:31;;;;;;;1.15;0.17;;;;;;;18.64;59.06;102030.25;5044886;28;20037;-84
2023/05/14 08:36:58;;;;;;;0.77;0.77;;;;;;;18.63;59.15;102030.28;5050469;28;20491;-84
2023/05/14 08:39:24;;;;;;;0.40;0.40;;;;;;;18.68;59.24;102023.84;5054213;28;20009;-85
2023/05/14 08:41:50;;;;;;;0.30;0.30;;;;;;;18.76;59.36;102024.44;5053689;28;20022;-83
2023/05/14 08:44:19;;;;;;;0.28;0.28;;;;;;;18.87;59.05;102017.81;5043441;28;20045;-84
2023/05/14 08:46:48;;;;;;;0.20;0.20;;;;;;;18.90;58.88;102021.31;5043662;28;20044;-81
2023/05/14 08:49:39;;;;;;;0.10;0.10;;;;;;;18.98;58.99;102007.59;5049291;28;20075;-84
2023/05/14 08:52:07;;;;;;;0.25;0.25;;;;;;;19.05;58.85;102009.13;5039898;28;20075;-85
2023/05/14 08:54:33;;;;;;;0.40;0.40;;;;;;;19.06;58.75;102013.53;5048190;28;20039;-84
2023/05/14 08:57:00;;;;;;;0.10;0.10;;;;;;;19.17;58.68;102012.28;5023921;28;20030;-84
2023/05/14 08:59:26;;;;;;;0.10;0.10;;;;;;;19.25;58.38;102007.47;5042515;28;20104;-84
2023/05/14 09:01:54;;;;;;;0.10;0.10;;;;;;;19.36;58.06;102007.94;5045905;28;20009;-83
2023/05/14 09:04:23;;;;;;;0.25;0.25;;;;;;;19.39;58.12;101997.09;5052696;28;20024;-84
2023/05/14 09:06:52;;;;;;;0.10;0.10;;;;;;;19.43;58.25;101995.16;5046113;28;20416;-85
2023/05/14 09:09:21;;;;;;;0.10;0.10;;;;;;;19.55;57.87;101992.00;5046927;28;20020;-85
2023/05/14 09:11:48;;;;;;;15.98;1.85;;;;;;;19.62;57.89;101995.31;5049430;28;20296;-86
2023/05/14 09:14:15;;;;;;;0.47;0.47;;;;;;;19.66;57.68;101991.53;5038021;28;20018;-85
2023/05/14 09:16:43;;;;;;;0.30;0.30;;;;;;;19.71;57.52;101992.25;5051256;28;20028;-85
2023/05/14 09:19:10;;;;;;;0.10;0.10;;;;;;;19.78;57.47;101997.38;5047441;28;20028;-86
2023/05/14 09:21:36;;;;;;;0.10;0.10;;;;;;;19.84;57.42;101986.41;5034714;28;20038;-85
2023/05/14 09:24:04;;;;;;;0.10;0.10;;;;;;;19.91;57.13;101987.03;5046264;28;20020;-85
2023/05/14 09:26:33;;;;;;;0.20;0.20;;;;;;;19.94;57.16;101982.41;5033677;28;20100;-85
2023/05/14 09:29:01;;;;;;;0.30;0.30;;;;;;;19.97;57.10;101987.63;5033759;28;20477;-85
2023/05/14 09:31:30;;;;;;;0.10;0.10;;;;;;;20.02;57.05;101982.06;5026110;28;20022;-85
2023/05/14 09:33:59;;;;;;;4.45;2.70;;;;;;;20.03;56.95;101976.63;5030873;28;20017;-85
2023/05/14 09:36:26;;;;;;;0.10;0.10;;;;;;;20.06;57.01;101974.75;5037308;28;20030;-85
2023/05/14 09:38:55;;;;;;;0.90;0.82;;;;;;;20.15;57.01;101968.97;5039441;28;20044;-85
2023/05/14 09:41:21;;;;;;;0.20;0.20;;;;;;;20.26;56.92;101965.84;5041778;28;20396;-85
2023/05/14 09:43:49;;;;;;;0.60;0.60;;;;;;;20.36;56.72;101965.38;5036726;28;20397;-85
2023/05/14 09:46:16;;;;;;;0.10;0.10;;;;;;;20.44;56.46;101966.88;5037265;28;20022;-85
2023/05/14 09:48:44;;;;;;;0.20;0.20;;;;;;;20.48;55.87;101960.41;5055809;28;20026;-84
2023/05/14 09:51:10;;;;;;;0.20;0.20;;;;;;;20.53;56.13;101953.00;5047868;28;20026;-86
2023/05/14 09:53:37;;;;;;;0.30;0.30;;;;;;;20.59;56.12;101958.09;5042088;28;20029;-86
2023/05/14 09:56:03;;;;;;;0.10;0.10;;;;;;;20.68;55.94;101951.44;5037444;28;20045;-86
2023/05/14 09:58:30;;;;;;;0.47;0.47;;;;;;;20.75;56.07;101958.31;5043810;28;20032;-86
2023/05/14 10:01:00;;;;;;;0.15;0.15;;;;;;;20.82;55.57;101958.91;5044582;28;20114;-85
2023/05/14 10:03:28;;;;;;;0.10;0.10;;;;;;;20.91;55.54;101960.31;5034512;28;20109;-85
2023/05/14 10:05:59;;;;;;;0.30;0.30;;;;;;;20.98;55.57;101957.25;5042795;28;20397;-84
2023/05/14 10:08:32;;;;;;;0.20;0.20;;;;;;;21.11;55.14;101962.97;5035266;28;20554;-85
2023/05/14 10:11:00;;;;;;;0.60;0.60;;;;;;;21.22;55.02;101962.47;5038583;28;20046;-86
2023/05/14 10:13:36;;;;;;;0.10;0.10;;;;;;;21.36;54.87;101958.22;5025301;28;20040;-85
2023/05/14 10:16:27;;;;;;;0.30;0.30;;;;;;;21.53;54.27;101952.88;5049044;28;20223;-84
2023/05/14 10:18:59;;;;;;;0.17;0.17;;;;;;;21.54;53.97;101959.16;5047676;28;20020;-85
2023/05/14 10:21:28;;;;;;;0.00;0.00;;;;;;;21.59;54.20;101958.00;5049000;28;20112;-86
2023/05/14 10:23:55;;;;;;;1.48;0.55;;;;;;;;;;5037560;28;20113;-79
2023/05/14 10:26:21;;;;;;;0.10;0.10;;;;;;;21.70;53.97;101946.72;5038221;28;20079;-80
2023/05/14 10:28:47;;;;;;;0.43;0.43;;;;;;;21.78;53.95;101949.00;5039569;28;20075;-80
2023/05/14 10:31:13;;;;;;;0.75;0.75;;;;;;;21.86;53.65;101946.81;5041297;28;20085;-80
2023/05/14 10:33:49;;;;;;;0.10;0.10;;;;;;;21.94;53.34;101944.63;5040904;28;20037;-79
2023/05/14 10:36:17;;;;;;;0.35;0.35;;;;;;;21.98;53.18;101946.19;5029109;28;20018;-80
2023/05/14 10:38:43;;;;;;;0.10;0.10;;;;;;;22.06;53.40;101937.72;5045513;28;20540;-79
2023/05/14 10:41:20;;;;;;;0.38;0.38;;;;;;;22.14;52.96;101934.59;5042132;28;20028;-79
2023/05/14 10:43:47;;;;;;;1.65;0.65;;;;;;;22.20;53.11;101934.28;5040420;28;20040;-78
2023/05/14 10:46:16;;;;;;;0.85;0.43;;;;;;;22.26;52.54;101933.13;5025858;28;20065;-80
2023/05/14 10:48:44;;;;;;;0.60;0.60;;;;;;;22.26;52.54;101928.56;5038317;28;20076;-81
2023/05/14 10:51:11;;;;;;;0.10;0.10;;;;;;;22.26;52.64;101923.19;5040106;28;20052;-80
2023/05/14 10:53:40;;;;;;;0.10;0.10;;;;;;;22.28;52.42;101923.09;5035607;28;20033;-80
2023/05/14 10:56:09;;;;;;;0.10;0.10;;;;;;;22.33;52.32;101920.16;5042591;28;20125;-80
2023/05/14 10:58:37;;;;;;;0.10;0.10;;;;;;;22.41;52.46;101904.47;5047497;28;20032;-79
2023/05/14 11:01:05;;;;;;;0.20;0.20;;;;;;;22.50;52.15;101903.97;5040865;28;20024;-78
2023/05/14 11:03:37;;;;;;;0.10;0.10;;;;;;;22.59;51.80;101910.69;5025271;28;20026;-79
2023/05/14 11:06:05;;;;;;;0.30;0.30;;;;;;;22.66;51.51;101908.56;5020287;28;20049;-80
2023/05/14 11:08:32;;;;;;;0.85;0.85;;;;;;;22.72;51.42;101902.81;5021208;28;20022;-80
2023/05/14 11:10:58;;;;;;;0.00;0.00;;;;;;;22.76;51.01;101904.38;5037174;28;20048;-79
2023/05/14 11:13:25;;;;;;;0.13;0.13;;;;;;;22.81;51.24;101902.31;5032356;28;20116;-81
2023/05/14 11:15:52;;;;;;;0.30;0.30;;;;;;;22.81;51.45;101894.19;5034477;28;20387;-79
2023/05/14 11:18:27;;;;;;;1.02;0.80;;;;;;;23.00;51.21;101890.47;5022779;28;20485;-80
2023/05/14 11:20:58;;;;;;;0.10;0.10;;;;;;;23.05;50.99;101889.28;5027338;28;20516;-78
2023/05/14 11:23:24;;;;;;;0.10;0.10;;;;;;;23.21;50.76;101891.97;5022804;28;20076;-78
2023/05/14 11:25:52;;;;;;;0.32;0.32;;;;;;;23.31;50.60;101889.63;5032873;28;20443;-79
2023/05/14 11:28:22;;;;;;;0.00;0.00;;;;;;;23.34;50.16;101888.56;5032533;28;20024;-79
2023/05/14 11:30:50;;;;;;;0.10;0.10;;;;;;;23.35;50.67;101887.63;5040406;28;20039;-79
2023/05/14 11:33:17;;;;;;;0.10;0.10;;;;;;;23.35;49.60;101884.91;5035607;28;20080;-81
2023/05/14 11:35:44;;;;;;;0.43;0.40;;;;;;;23.37;50.01;101883.88;5030921;28;20036;-81
2023/05/14 11:40:56;;;;;;;0.15;0.15;;;;;;;23.58;49.41;101879.03;5128920;27;20411;-79